Somers, IA (50586)

5:36 PM CDT on August 01, 2014 (GMT -0500)
Lohrville NE (KIALOHRV5) Elev 1170 ft | 42.28 °N, 94.49 °W | Change Station

Current weather conditions updated 1 second ago

Clear
Clear
88.0 °F
Feels Like 87 °F
N
0.7
Wind Variable Wind from WNW
Gusts 2.2 mph

Tomorrow is forecast to be Cooler than today.

Today
High -- | Low -- °F
--% Chance of Precip.
Yesterday
High -- | Low -- °F
Precip. -- in
6:10 AM 8:37 PM
Waxing Crescent, 30% visible
Pressure 30.09 in
Visibility 10.0 miles
Clouds Clear
Heat Index 87 °F
Dew Point 59 °F
Humidity 38%
Rainfall 0.00 in
Snow Depth Not available.
UV 4 out of 12
Pollen 7.60 out of 12
Air Quality Not available.
Flu Activity Not available.
METAR KFOD 012215Z AUTO 00000KT 10SM CLR 27/14 A3009 RMK AO1

More Conditions Fewer Conditions

Pressure 30.09 in
Visibility 10.0 miles
Clouds Clear
Heat Index 87 °F
Dew Point 59 °F
Humidity 38%
Rainfall 0.00 in
Snow Depth Not available.
UV 4 out of 12
Pollen 7.60 out of 12
Air Quality Not available.
Flu Activity Not available.
METAR KFOD 012215Z AUTO 00000KT 10SM CLR 27/14 A3009 RMK AO1

More Conditions Fewer Conditions

10-Day Weather Forecast

Almanac

Astronomy

Aug. 01, 2014 Rise Set
Actual Time 6:10 AM CDT 8:37 PM CDT
Civil Twilight 5:38 AM CDT 9:08 PM CDT
Nautical Twilight 4:58 AM CDT 9:48 PM CDT
Astronomical Twilight 4:14 AM CDT 10:32 PM CDT
Moon 11:42 AM CDT 11:14 PM CDT
Length of Visible Light 15h 30m
Length of Day
14h 26m
Tomorrow will be 2m 11s shorter.
Waxing Crescent, 30% of the Moon is Illuminated
Today
Waxing Crescent
Aug 3
First Quarter
Aug 10
Full
Aug 17
Last Quarter
Aug 25
New

Today's Extremes

State Highs State Lows

Community

WunderPhotos

Upload Photos

1,739,735 photos uploaded!

Nearby

Snow Depth

Station Depth Elevation
No new snow has been reported.

Earthquake Activity

City Distance Mag. Time & Date
No recent earthquake activity has been reported nearby.
Minimum magnitude displayed is 2.5.

Coastal Water Temperatures

Place Temperature
No Stations Reporting

Nearby Weather Stations

Station Location Temp. Heat Index Dew Point Humidity Wind Precip. Elev Updated Type
Lohrville NE, Lohrville, IA 88.0 °F 87 °F 59 °F 38% WNW  at  0.7 mph 0.00 in / hr 1170 ft 5:36 PM CDT Rapid Fire
Lohrville, IA 90.3 °F 91 °F 62 °F 39% ESE  at  3.2 mph - / hr 1150 ft 5:33 PM CDT Normal
Expo Pool Area, Fort Dodge, IA 85.8 °F 86 °F 62 °F 45% SSE  at  4.7 mph - / hr 1093 ft 5:34 PM CDT Normal
Duncombe School area, Fort Dodge, IA 82.2 °F 83 °F 61 °F 49% SE  at  0.9 mph 0.00 in / hr 1109 ft 5:36 PM CDT Rapid Fire
Midwest, Lake City, IA 84.2 °F 85 °F 62 °F 48% East  at  1.0 mph 0.00 in / hr 1201 ft 5:30 PM CDT Normal
Badger IA, Badger, IA 89.3 °F 89 °F 60 °F 38% NW  at  3.0 mph 0.00 in / hr 1142 ft 5:35 PM CDT Normal
NW of Badger by DSM River, Badger, IA 78.9 °F 80 °F 60 °F 53% ENE  at  0.0 mph 0.00 in / hr 1125 ft 5:35 PM CDT Rapid Fire

Show More Stations Show Fewer Stations